0°C Temp
-2°C Dewpoint
87% Humidity
Temperature
8 KM/H
5 MPH
4 KTS
210°
South South
West

Wind Speed
Misty
Conditions
Pressure 1024.92 (hPa) - 30.27 (in)
Visibility 3.1 (mi) - 5.0 (km)

Current Conditions
LIPR
Location 4(km)
Metar :LIPR 181750Z 21004KT 5000 BR NSC 00/M02 Q1025
Mon 18th January 19:50 pm

Airport
  Metar Aviation API Data Provided by https://www.checkwx.com/ PHP scripts by weather34.com ©2021